Time;durP1;ratioP1;P1;durP2;ratioP2;P2;SDS_P1;SDS_P2;PMS_P1;PMS_P2;Temp;Humidity;BMP_temperature;BMP_pressure;BME280_temperature;BME280_humidity;BME280_pressure;Samples;Min_cycle;Max_cycle;Signal;HPM_P1;HPM_P2
2023/12/05 00:01:01;;;;;;;64.25;32.38;;;;;;;-2.82;100.00;100764.02;1379438;90;21375;-78
2023/12/05 00:03:27;;;;;;;63.42;33.83;;;;;;;-2.84;100.00;100758.92;1372548;90;21367;-78
2023/12/05 00:05:53;;;;;;;93.47;45.33;;;;;;;-2.86;100.00;100751.64;1427108;89;22314;-77
2023/12/05 00:08:19;;;;;;;49.75;29.10;;;;;;;-2.87;100.00;100738.30;1448394;90;21586;-78
2023/12/05 00:10:46;;;;;;;56.20;29.82;;;;;;;-2.87;100.00;100742.19;1451025;90;21530;-77
2023/12/05 00:13:12;;;;;;;59.00;31.27;;;;;;;-2.88;100.00;100740.48;1450267;90;21434;-78
2023/12/05 00:15:38;;;;;;;59.35;30.75;;;;;;;-2.88;100.00;100744.36;1444675;90;21642;-78
2023/12/05 00:18:04;;;;;;;65.45;33.10;;;;;;;-2.90;100.00;100733.23;1456078;90;22455;-78
2023/12/05 00:20:30;;;;;;;56.92;28.60;;;;;;;-2.87;100.00;100734.88;1457087;90;22476;-78
2023/12/05 00:22:56;;;;;;;65.20;33.48;;;;;;;-2.86;100.00;100733.97;1449613;90;22432;-79
2023/12/05 00:25:23;;;;;;;53.50;29.48;;;;;;;-2.86;100.00;100736.09;1454000;90;21670;-79
2023/12/05 00:27:49;;;;;;;55.63;27.58;;;;;;;-2.86;100.00;100731.38;1446577;90;21449;-78
2023/12/05 00:30:15;;;;;;;55.12;29.35;;;;;;;-2.87;100.00;100734.42;1455312;90;21605;-77
2023/12/05 00:32:41;;;;;;;55.52;28.27;;;;;;;-2.85;100.00;100736.52;1451617;90;21615;-78
2023/12/05 00:35:08;;;;;;;54.13;28.17;;;;;;;-2.83;100.00;100733.85;1447842;90;21442;-77
2023/12/05 00:37:34;;;;;;;43.35;26.57;;;;;;;-2.84;100.00;100742.53;1453590;90;21541;-76
2023/12/05 00:40:00;;;;;;;50.58;27.35;;;;;;;-2.84;100.00;100754.19;1455404;89;21442;-77
2023/12/05 00:42:27;;;;;;;52.30;29.95;;;;;;;-2.85;100.00;100749.89;1451800;90;21739;-76
2023/12/05 00:44:53;;;;;;;47.65;27.82;;;;;;;-2.85;100.00;100744.28;1450690;90;21508;-76
2023/12/05 00:47:19;;;;;;;46.80;26.12;;;;;;;-2.82;100.00;100748.06;1453611;89;22580;-76
2023/12/05 00:49:45;;;;;;;47.93;27.22;;;;;;;-2.82;100.00;100748.06;1447791;90;21516;-76
2023/12/05 00:52:11;;;;;;;41.63;25.55;;;;;;;-2.82;100.00;100748.06;1449901;90;21619;-77
2023/12/05 00:54:38;;;;;;;44.20;26.10;;;;;;;-2.82;100.00;100745.47;1444802;90;21633;-77
2023/12/05 00:57:04;;;;;;;46.88;26.40;;;;;;;-2.81;100.00;100749.73;1447654;90;21559;-76
2023/12/05 00:59:31;;;;;;;42.88;26.97;;;;;;;-2.82;100.00;100752.37;1455758;90;21487;-77
2023/12/05 01:01:57;;;;;;;43.00;25.62;;;;;;;-2.83;100.00;100759.30;1456471;90;21629;-77
2023/12/05 01:04:23;;;;;;;39.00;23.52;;;;;;;-2.86;100.00;100759.41;1455268;90;21523;-76
2023/12/05 01:06:49;;;;;;;37.10;22.67;;;;;;;-2.89;100.00;100756.09;1452661;90;21433;-76
2023/12/05 01:09:15;;;;;;;36.70;22.52;;;;;;;-2.91;100.00;100759.17;1458070;90;22358;-77
2023/12/05 01:11:41;;;;;;;39.40;23.42;;;;;;;-2.93;100.00;100757.08;1447464;90;21500;-76
2023/12/05 01:14:07;;;;;;;39.20;24.43;;;;;;;-2.93;100.00;100756.66;1450148;90;21471;-78
2023/12/05 01:16:34;;;;;;;39.90;22.02;;;;;;;-2.96;100.00;100761.95;1457417;90;21590;-77
2023/12/05 01:19:00;;;;;;;43.23;23.57;;;;;;;-2.94;100.00;100757.53;1455738;90;21449;-78
2023/12/05 01:21:27;;;;;;;32.75;20.27;;;;;;;-2.90;100.00;100755.70;1454286;90;22603;-77
2023/12/05 01:23:53;;;;;;;33.78;22.00;;;;;;;-2.94;100.00;100748.47;1453156;90;21412;-77
2023/12/05 01:26:19;;;;;;;41.35;23.35;;;;;;;-2.96;100.00;100748.55;1443289;90;21600;-77
2023/12/05 01:28:45;;;;;;;39.53;22.52;;;;;;;-3.00;100.00;100739.17;1453802;89;21478;-77
2023/12/05 01:31:11;;;;;;;42.27;24.72;;;;;;;-3.05;100.00;100737.22;1442325;89;21523;-77
2023/12/05 01:33:37;;;;;;;55.67;28.65;;;;;;;-3.08;100.00;100726.97;1450922;89;21448;-77
2023/12/05 01:36:11;;;;;;;54.23;29.85;;;;;;;-3.14;100.00;100731.48;1446555;90;21419;-77
2023/12/05 01:38:39;;;;;;;52.17;29.32;;;;;;;-3.13;100.00;100733.20;1454154;89;21486;-77
2023/12/05 01:41:07;;;;;;;42.30;23.77;;;;;;;-3.10;100.00;100729.21;1456307;90;21507;-77
2023/12/05 01:43:33;;;;;;;42.15;25.72;;;;;;;-3.09;100.00;100734.77;1451700;90;21509;-77
2023/12/05 01:46:01;;;;;;;48.68;26.95;;;;;;;-3.09;100.00;100721.83;1445240;89;21412;-77
2023/12/05 01:48:28;;;;;;;56.95;28.00;;;;;;;-3.08;100.00;100719.20;1450311;90;22439;-76
2023/12/05 01:50:55;;;;;;;125.10;49.23;;;;;;;-3.04;100.00;100713.45;1445392;90;21611;-76
2023/12/05 01:53:22;;;;;;;83.70;39.65;;;;;;;-2.98;100.00;100710.64;1455669;90;21535;-76
2023/12/05 01:55:50;;;;;;;359.10;138.65;;;;;;;-2.96;100.00;100695.45;1451557;89;21692;-76
2023/12/05 01:58:17;;;;;;;163.90;70.40;;;;;;;-2.91;100.00;100694.42;1453120;89;21464;-76
2023/12/05 02:00:44;;;;;;;60.63;31.30;;;;;;;-2.88;100.00;100693.86;1444988;90;21611;-76
2023/12/05 02:03:11;;;;;;;185.05;70.50;;;;;;;-2.85;100.00;100686.42;1452535;89;21404;-77
2023/12/05 02:05:38;;;;;;;182.70;73.72;;;;;;;-2.84;100.00;100681.20;1446730;90;21507;-77
2023/12/05 02:08:07;;;;;;;76.25;37.05;;;;;;;-2.82;100.00;100671.64;1449839;90;22447;-76
2023/12/05 02:10:33;;;;;;;45.65;26.35;;;;;;;-2.82;100.00;100671.64;1454061;90;21390;-77
2023/12/05 02:13:00;;;;;;;48.92;25.97;;;;;;;-2.81;100.00;100672.02;1451425;89;21456;-77
2023/12/05 02:15:26;;;;;;;56.88;29.63;;;;;;;-2.81;100.00;100672.48;1450019;90;21478;-77
2023/12/05 02:18:03;;;;;;;41.05;24.55;;;;;;;-2.79;100.00;100675.41;1454619;90;21516;-77
2023/12/05 02:20:50;;;;;;;43.33;26.33;;;;;;;-2.80;100.00;100672.86;1449827;89;21552;-77
2023/12/05 02:23:42;;;;;;;39.10;24.63;;;;;;;-2.80;100.00;100668.52;1454005;89;21589;-76
2023/12/05 02:26:31;;;;;;;41.83;25.25;;;;;;;-2.84;100.00;100666.95;1458159;89;21612;-76
2023/12/05 02:28:57;;;;;;;42.05;24.90;;;;;;;-2.85;100.00;100651.45;1457710;89;21629;-77
2023/12/05 02:31:23;;;;;;;43.20;24.77;;;;;;;-2.88;100.00;100653.70;1460789;89;22448;-77
2023/12/05 02:33:50;;;;;;;72.87;39.03;;;;;;;-2.90;100.00;100644.33;1456104;89;21605;-77
2023/12/05 02:36:21;;;;;;;67.32;36.85;;;;;;;-2.91;100.00;100619.31;1451121;89;21611;-77
2023/12/05 02:39:07;;;;;;;61.90;32.03;;;;;;;-2.91;100.00;100624.03;1456690;89;21500;-77
2023/12/05 02:41:39;;;;;;;37.53;22.75;;;;;;;-2.90;100.00;100624.91;1468442;89;22514;-76
2023/12/05 02:44:12;;;;;;;51.80;30.52;;;;;;;-2.89;100.00;100627.42;1461981;89;21537;-77
2023/12/05 02:46:41;;;;;;;49.38;27.37;;;;;;;-2.89;100.00;100620.95;1451238;89;22307;-77
2023/12/05 02:49:11;;;;;;;47.62;28.12;;;;;;;-2.87;100.00;100608.79;1454231;89;21478;-77
2023/12/05 02:51:37;;;;;;;210.97;92.57;;;;;;;-2.84;100.00;100603.49;1455854;89;22621;-76
2023/12/05 02:54:06;;;;;;;116.25;54.18;;;;;;;-2.81;100.00;100603.37;1459849;89;21522;-76
2023/12/05 02:56:35;;;;;;;65.20;36.40;;;;;;;-2.81;100.00;100608.55;1460246;89;21545;-77
2023/12/05 02:59:02;;;;;;;79.30;39.65;;;;;;;-2.78;100.00;100606.30;1463892;89;21508;-76
2023/12/05 03:01:28;;;;;;;69.60;33.33;;;;;;;-2.79;100.00;100606.76;1467208;89;21552;-76
2023/12/05 03:03:54;;;;;;;44.15;25.30;;;;;;;-2.79;100.00;100601.58;1457829;89;22603;-76
2023/12/05 03:06:20;;;;;;;105.37;50.85;;;;;;;-2.80;100.00;100602.92;1460132;89;21398;-76
2023/12/05 03:08:46;;;;;;;72.70;36.23;;;;;;;-2.79;100.00;100604.17;1450796;89;21522;-76
2023/12/05 03:11:12;;;;;;;43.25;23.95;;;;;;;-2.77;100.00;100602.34;1449193;89;21486;-77
2023/12/05 03:13:40;;;;;;;32.65;21.60;;;;;;;-2.72;100.00;100601.72;1456152;89;21456;-77
2023/12/05 03:16:08;;;;;;;227.93;94.55;;;;;;;-2.67;100.00;100603.31;1460651;89;21559;-75
2023/12/05 03:18:34;;;;;;;42.67;23.70;;;;;;;-2.68;100.00;100597.72;1453701;89;21478;-76
2023/12/05 03:21:00;;;;;;;33.60;20.95;;;;;;;-2.71;100.00;100598.67;1465542;89;21522;-76
2023/12/05 03:23:27;;;;;;;33.80;20.00;;;;;;;-2.71;100.00;100598.67;1461245;89;21397;-76
2023/12/05 03:25:53;;;;;;;37.30;20.92;;;;;;;-2.73;100.00;100610.41;1454977;89;22494;-77
2023/12/05 03:28:19;;;;;;;36.75;21.27;;;;;;;-2.72;100.00;100606.06;1444796;89;21493;-76
2023/12/05 03:30:45;;;;;;;39.73;22.65;;;;;;;-2.69;100.00;100609.83;1446406;89;21875;-76
2023/12/05 03:33:12;;;;;;;35.98;21.35;;;;;;;-2.66;100.00;100606.28;1457278;89;21411;-77
2023/12/05 03:35:38;;;;;;;44.70;25.32;;;;;;;-2.64;100.00;100596.71;1457335;89;22321;-76
2023/12/05 03:38:04;;;;;;;35.40;21.60;;;;;;;-2.60;100.00;100591.78;1453768;89;22638;-77
2023/12/05 03:40:30;;;;;;;33.58;21.02;;;;;;;-2.56;100.00;100599.82;1421157;89;21419;-76
2023/12/05 03:42:57;;;;;;;39.40;21.55;;;;;;;-2.52;100.00;100598.81;1464792;89;21463;-77
2023/12/05 03:45:23;;;;;;;39.92;23.47;;;;;;;-2.56;100.00;100605.00;1455089;89;21582;-76
2023/12/05 03:47:49;;;;;;;35.10;20.90;;;;;;;-2.58;100.00;100600.36;1449917;89;21448;-76
2023/12/05 03:50:16;;;;;;;32.85;19.10;;;;;;;-2.62;100.00;100602.66;1460196;89;21456;-76
2023/12/05 03:52:42;;;;;;;36.68;21.73;;;;;;;-2.63;100.00;100600.52;1457970;89;21604;-77
2023/12/05 03:55:08;;;;;;;46.88;26.37;;;;;;;-2.61;100.00;100595.30;1463869;89;21447;-77
2023/12/05 03:57:35;;;;;;;42.78;24.32;;;;;;;-2.59;100.00;100592.17;1457168;89;21508;-78
2023/12/05 04:00:01;;;;;;;38.23;22.10;;;;;;;-2.59;100.00;100590.88;1463149;89;21470;-78
2023/12/05 04:02:27;;;;;;;37.88;21.73;;;;;;;-2.64;100.00;100585.05;1460154;89;21449;-78
2023/12/05 04:04:53;;;;;;;40.20;23.32;;;;;;;-2.73;100.00;100578.02;1462077;89;21567;-77
2023/12/05 04:07:19;;;;;;;38.85;24.00;;;;;;;-2.72;100.00;100589.22;1444138;89;22299;-78
2023/12/05 04:09:46;;;;;;;34.53;22.87;;;;;;;-2.70;100.00;100586.55;1460940;89;21567;-77
2023/12/05 04:12:13;;;;;;;39.30;23.12;;;;;;;-2.67;100.00;100586.47;1434063;89;21449;-77
2023/12/05 04:14:40;;;;;;;36.80;24.25;;;;;;;-2.66;100.00;100577.32;1455680;89;21619;-78
2023/12/05 04:17:06;;;;;;;39.67;24.72;;;;;;;-2.63;100.00;100576.36;1443102;89;21470;-78
2023/12/05 04:19:32;;;;;;;38.38;23.32;;;;;;;-2.62;100.00;100574.16;1459487;89;22329;-78
2023/12/05 04:21:58;;;;;;;52.67;29.40;;;;;;;-2.60;100.00;100568.47;1457645;89;21443;-78
2023/12/05 04:24:24;;;;;;;43.97;26.67;;;;;;;-2.57;100.00;100561.86;1457500;89;21690;-78
2023/12/05 04:26:50;;;;;;;43.90;26.43;;;;;;;-2.53;100.00;100563.45;1460220;89;21599;-78
2023/12/05 04:29:16;;;;;;;40.15;24.23;;;;;;;-2.51;100.00;100562.91;1451930;89;21751;-79
2023/12/05 04:31:43;;;;;;;39.97;24.73;;;;;;;-2.55;100.00;100554.88;1457146;89;21286;-78
2023/12/05 04:34:09;;;;;;;40.88;24.80;;;;;;;-2.60;100.00;100568.47;1463420;89;22291;-78
2023/12/05 04:36:35;;;;;;;37.60;22.90;;;;;;;-2.62;100.00;100576.31;1465849;89;21360;-77
2023/12/05 04:39:01;;;;;;;40.85;25.32;;;;;;;-2.63;100.00;100578.95;1453634;89;21490;-79
2023/12/05 04:41:33;;;;;;;37.93;23.07;;;;;;;-2.62;100.00;100580.63;1458507;89;22376;-78
2023/12/05 04:43:55;;;;;;;41.77;23.77;;;;;;;-2.61;100.00;100575.86;1466298;89;21331;-77
2023/12/05 04:46:22;;;;;;;38.40;22.97;;;;;;;-2.61;100.00;100573.27;1455815;89;22135;-78
2023/12/05 04:48:48;;;;;;;68.97;35.05;;;;;;;-2.64;100.00;100578.11;1457188;89;21717;-78
2023/12/05 04:51:19;;;;;;;62.62;32.70;;;;;;;-2.66;100.00;100578.62;1465329;89;21502;-78
2023/12/05 04:53:46;;;;;;;53.33;30.17;;;;;;;-2.68;100.00;100574.39;1459777;89;22498;-78
2023/12/05 04:56:12;;;;;;;40.73;24.32;;;;;;;-2.78;100.00;100572.17;1451630;89;21345;-77
2023/12/05 04:58:38;;;;;;;43.20;24.65;;;;;;;-2.80;100.00;100564.90;1458789;89;21419;-78
2023/12/05 05:01:05;;;;;;;36.08;21.42;;;;;;;-2.76;100.00;100551.40;1456366;89;22558;-77
2023/12/05 05:03:31;;;;;;;37.15;21.62;;;;;;;-2.69;100.00;100546.81;1456682;89;21447;-76
2023/12/05 05:05:57;;;;;;;33.63;20.67;;;;;;;-2.64;100.00;100544.43;1452744;89;21368;-76
2023/12/05 05:08:23;;;;;;;36.68;22.65;;;;;;;-2.58;100.00;100548.53;1452584;89;22628;-76
2023/12/05 05:10:50;;;;;;;34.53;20.48;;;;;;;-2.56;100.00;100544.11;1462813;89;21479;-77
2023/12/05 05:13:16;;;;;;;31.12;20.23;;;;;;;-2.56;100.00;100537.63;1456489;89;21509;-78
2023/12/05 05:15:42;;;;;;;30.48;19.12;;;;;;;-2.58;100.00;100545.94;1452711;89;21338;-77
2023/12/05 05:18:09;;;;;;;38.60;21.95;;;;;;;-2.60;100.00;100552.92;1454520;89;21530;-77
2023/12/05 05:20:35;;;;;;;56.20;29.77;;;;;;;-2.60;100.00;100553.76;1457716;89;21448;-76
2023/12/05 05:23:01;;;;;;;46.40;25.12;;;;;;;-2.54;100.00;100553.97;1457281;89;22219;-77
2023/12/05 05:25:27;;;;;;;69.67;31.45;;;;;;;-2.48;100.00;100557.60;1455676;89;22440;-76
2023/12/05 05:27:54;;;;;;;32.50;22.02;;;;;;;-2.45;100.00;100556.64;1462708;89;21353;-76
2023/12/05 05:30:20;;;;;;;115.85;50.73;;;;;;;-2.41;100.00;100557.77;1459176;89;21442;-77
2023/12/05 05:32:47;;;;;;;39.10;22.80;;;;;;;-2.38;100.00;100564.58;1452099;89;21467;-76
2023/12/05 05:35:13;;;;;;;41.23;24.75;;;;;;;-2.38;100.00;100561.52;1463307;89;21441;-76
2023/12/05 05:37:39;;;;;;;37.20;21.53;;;;;;;-2.35;100.00;100561.40;1445531;89;21427;-77
2023/12/05 05:40:07;;;;;;;34.88;22.52;;;;;;;-2.35;100.00;100565.28;1456329;89;22342;-77
2023/12/05 05:42:34;;;;;;;39.03;24.03;;;;;;;-2.37;100.00;100563.66;1452028;89;21573;-77
2023/12/05 05:45:00;;;;;;;40.92;24.23;;;;;;;-2.36;100.00;100568.80;1456626;89;22602;-76
2023/12/05 05:47:26;;;;;;;50.37;26.30;;;;;;;-2.33;100.00;100567.80;1455620;89;22270;-77
2023/12/05 05:49:52;;;;;;;50.15;26.37;;;;;;;-2.31;100.00;100569.43;1452130;89;21558;-76
2023/12/05 05:52:19;;;;;;;50.45;28.35;;;;;;;-2.30;100.00;100563.36;1461430;89;22895;-76
2023/12/05 05:54:45;;;;;;;53.75;27.32;;;;;;;-2.29;100.00;100565.03;1463091;89;21468;-77
2023/12/05 05:57:11;;;;;;;49.03;28.40;;;;;;;-2.27;100.00;100561.94;1456201;89;21323;-77
2023/12/05 05:59:39;;;;;;;45.10;27.00;;;;;;;-2.28;100.00;100560.23;1448199;89;21374;-76
2023/12/05 06:02:05;;;;;;;55.90;30.83;;;;;;;-2.27;100.00;100555.91;1453064;89;21515;-77
2023/12/05 06:04:31;;;;;;;41.17;24.13;;;;;;;-2.24;100.00;100558.80;1452748;89;22094;-78
2023/12/05 06:06:58;;;;;;;51.23;27.37;;;;;;;-2.27;100.00;100539.89;1445273;89;22016;-77
2023/12/05 06:09:24;;;;;;;119.77;47.70;;;;;;;-2.24;100.00;100546.70;1442370;89;22063;-78
2023/12/05 06:11:50;;;;;;;70.33;33.03;;;;;;;-2.19;100.00;100551.69;1455320;89;21658;-78
2023/12/05 06:14:16;;;;;;;127.72;55.85;;;;;;;-2.14;100.00;100554.94;1454661;89;22050;-78
2023/12/05 06:16:42;;;;;;;460.45;196.87;;;;;;;-2.10;100.00;100552.59;1455085;89;21456;-77
2023/12/05 06:19:08;;;;;;;63.33;30.47;;;;;;;-2.06;100.00;100554.17;1466041;89;21515;-77
2023/12/05 06:21:34;;;;;;;263.07;107.32;;;;;;;-2.01;100.00;100540.56;1459695;89;21618;-77
2023/12/05 06:24:00;;;;;;;158.40;65.73;;;;;;;-1.98;100.00;100537.84;1451418;89;22469;-78
2023/12/05 06:26:27;;;;;;;424.57;175.47;;;;;;;-1.97;100.00;100541.27;1453159;89;22470;-76
2023/12/05 06:28:53;;;;;;;362.13;155.60;;;;;;;-1.97;100.00;100534.33;1456278;89;23003;-76
2023/12/05 06:31:20;;;;;;;104.63;49.20;;;;;;;-1.94;100.00;100540.67;1461672;89;22722;-77
2023/12/05 06:33:46;;;;;;;147.43;65.53;;;;;;;-1.91;100.00;100541.00;1444851;89;21834;-77
2023/12/05 06:36:14;;;;;;;56.73;29.27;;;;;;;-1.87;100.00;100543.41;1463325;89;21542;-77
2023/12/05 06:38:40;;;;;;;47.30;26.03;;;;;;;-1.82;100.00;100540.60;1458110;89;22558;-76
2023/12/05 06:41:08;;;;;;;45.13;26.70;;;;;;;-1.78;100.00;100540.01;1458424;89;21510;-77
2023/12/05 06:43:34;;;;;;;74.90;37.90;;;;;;;-1.77;100.00;100546.91;1457186;89;21566;-78
2023/12/05 06:46:00;;;;;;;118.27;55.40;;;;;;;-1.75;100.00;100545.09;1455676;89;22556;-77
2023/12/05 06:48:27;;;;;;;86.07;43.43;;;;;;;-1.76;100.00;100545.98;1463532;89;23054;-76
2023/12/05 06:50:53;;;;;;;91.27;42.03;;;;;;;-1.77;100.00;100545.61;1457143;89;21606;-77
2023/12/05 06:53:19;;;;;;;70.07;33.37;;;;;;;-1.73;100.00;100545.39;1464210;89;21632;-77
2023/12/05 06:55:47;;;;;;;53.70;29.10;;;;;;;-1.68;100.00;100537.42;1449056;89;23020;-78
2023/12/05 06:58:13;;;;;;;49.60;27.47;;;;;;;-1.64;100.00;100538.95;1455257;89;21551;-78
2023/12/05 07:00:39;;;;;;;37.90;21.40;;;;;;;-1.60;100.00;100541.82;1449901;89;22625;-77
2023/12/05 07:03:05;;;;;;;62.10;29.93;;;;;;;-1.56;100.00;100534.27;1451696;89;21626;-77
2023/12/05 07:05:32;;;;;;;43.83;23.67;;;;;;;-1.55;100.00;100537.27;1457322;89;21613;-77
2023/12/05 07:08:00;;;;;;;36.83;20.83;;;;;;;-1.53;100.00;100535.89;1456907;89;21670;-76
2023/12/05 07:10:26;;;;;;;35.43;21.60;;;;;;;-1.51;100.00;100533.62;1456887;89;21732;-77
2023/12/05 07:12:53;;;;;;;35.47;21.93;;;;;;;-1.50;100.00;100540.48;1452397;89;21716;-78
2023/12/05 07:15:19;;;;;;;34.37;20.20;;;;;;;-1.49;100.00;100537.00;1458155;89;21600;-79
2023/12/05 07:17:46;;;;;;;34.13;19.97;;;;;;;-1.47;100.00;100540.34;1460763;89;21678;-78
2023/12/05 07:20:13;;;;;;;34.17;21.17;;;;;;;-1.50;100.00;100541.78;1454593;89;21881;-78
2023/12/05 07:22:39;;;;;;;38.43;23.80;;;;;;;-1.52;100.00;100537.14;1451895;89;22215;-78
2023/12/05 07:25:06;;;;;;;33.77;19.87;;;;;;;-1.51;100.00;100536.22;1444737;89;22645;-79
2023/12/05 07:27:32;;;;;;;35.70;21.33;;;;;;;-1.46;100.00;100534.73;1437232;89;21678;-78
2023/12/05 07:29:58;;;;;;;62.13;34.23;;;;;;;-1.42;100.00;100526.71;1455055;89;21508;-80
2023/12/05 07:32:25;;;;;;;40.27;24.13;;;;;;;-1.39;100.00;100521.38;1454654;89;21574;-78
2023/12/05 07:34:52;;;;;;;39.60;23.70;;;;;;;-1.33;100.00;100517.66;1456318;89;22418;-79
2023/12/05 07:37:18;;;;;;;54.40;30.67;;;;;;;-1.30;100.00;100514.09;1462791;89;21650;-79
2023/12/05 07:39:45;;;;;;;51.37;27.97;;;;;;;-1.28;100.00;100517.01;1462271;89;22147;-79
2023/12/05 07:42:11;;;;;;;109.67;57.13;;;;;;;-1.24;100.00;100521.59;1446881;89;22046;-79
2023/12/05 07:44:37;;;;;;;54.13;32.20;;;;;;;-1.25;100.00;100519.92;1461743;89;21566;-79
2023/12/05 07:47:07;;;;;;;51.33;29.57;;;;;;;-1.26;100.00;100520.84;1454854;89;21656;-80
2023/12/05 07:49:32;;;;;;;48.17;27.70;;;;;;;-1.24;100.00;100519.00;1447943;89;21627;-79
2023/12/05 07:51:58;;;;;;;54.50;29.93;;;;;;;-1.22;100.00;100508.09;1463687;89;21682;-79
2023/12/05 07:54:25;;;;;;;43.47;25.73;;;;;;;-1.19;100.00;100519.17;1463195;89;22602;-79
2023/12/05 07:56:50;;;;;;;44.63;25.40;;;;;;;-1.13;100.00;100506.36;1443652;89;23192;-78
2023/12/05 07:59:17;;;;;;;40.37;22.27;;;;;;;-1.07;100.00;100506.54;1457351;89;21623;-79
2023/12/05 08:01:44;;;;;;;41.23;24.47;;;;;;;-1.05;100.00;100512.05;1442056;89;21681;-79
2023/12/05 08:04:10;;;;;;;38.10;23.73;;;;;;;-1.04;100.00;100513.72;1457199;89;21589;-80
2023/12/05 08:06:37;;;;;;;40.23;24.93;;;;;;;-1.03;100.00;100515.43;1455932;89;21521;-80
2023/12/05 08:09:03;;;;;;;34.47;20.00;;;;;;;-1.00;100.00;100511.38;1462541;89;21684;-80
2023/12/05 08:11:29;;;;;;;37.40;21.70;;;;;;;-0.97;100.00;100515.14;1452500;89;21574;-79
2023/12/05 08:13:55;;;;;;;37.53;22.10;;;;;;;-0.92;100.00;100514.94;1436881;89;22563;-78
2023/12/05 08:16:21;;;;;;;56.43;32.73;;;;;;;-0.88;100.00;100514.33;1454933;89;21688;-78
2023/12/05 08:18:48;;;;;;;47.67;27.07;;;;;;;-0.83;100.00;100508.45;1450635;89;21434;-79
2023/12/05 08:21:14;;;;;;;39.80;24.57;;;;;;;-0.80;100.00;100513.51;1454080;89;21743;-79
2023/12/05 08:23:40;;;;;;;38.13;22.60;;;;;;;-0.75;100.00;100516.70;1443919;89;22648;-80
2023/12/05 08:26:07;;;;;;;30.00;19.67;;;;;;;-0.77;100.00;100510.76;1455507;89;21620;-79
2023/12/05 08:28:34;;;;;;;28.63;18.90;;;;;;;-0.78;100.00;100515.55;1457191;89;21560;-80
2023/12/05 08:31:00;;;;;;;35.80;21.07;;;;;;;-0.78;100.00;100514.25;1437943;89;21903;-79
2023/12/05 08:33:27;;;;;;;35.43;21.67;;;;;;;-0.73;100.00;100512.28;1447262;89;21636;-79
2023/12/05 08:35:53;;;;;;;31.93;19.27;;;;;;;-0.68;100.00;100519.41;1455385;89;21656;-78
2023/12/05 08:38:19;;;;;;;29.30;17.50;;;;;;;-0.60;100.00;100519.05;1455112;89;21527;-79
2023/12/05 08:40:45;;;;;;;26.97;18.43;;;;;;;-0.53;100.00;100530.36;1457912;89;22459;-79
2023/12/05 08:43:11;;;;;;;32.77;19.27;;;;;;;-0.47;100.00;100530.52;1442399;89;21485;-79
2023/12/05 08:45:37;;;;;;;35.27;21.47;;;;;;;-0.43;100.00;100528.60;1457906;89;21671;-79
2023/12/05 08:48:04;;;;;;;32.93;19.83;;;;;;;-0.38;100.00;100524.86;1442480;89;21536;-80
2023/12/05 08:50:30;;;;;;;32.80;20.47;;;;;;;-0.32;100.00;100527.63;1458153;89;22199;-79
2023/12/05 08:52:56;;;;;;;32.33;20.73;;;;;;;-0.35;100.00;100531.21;1457237;89;21744;-79
2023/12/05 08:55:22;;;;;;;33.33;20.37;;;;;;;-0.30;100.00;100536.20;1457397;89;21711;-79
2023/12/05 08:57:48;;;;;;;37.37;22.27;;;;;;;-0.28;100.00;100532.61;1462243;89;22741;-80
2023/12/05 09:00:15;;;;;;;41.17;23.70;;;;;;;-0.24;100.00;100528.09;1458849;89;21798;-79
2023/12/05 09:02:41;;;;;;;45.43;25.50;;;;;;;-0.18;100.00;100530.38;1456291;89;21544;-79
2023/12/05 09:05:08;;;;;;;43.27;24.70;;;;;;;-0.12;100.00;100522.27;1440959;89;21760;-79
2023/12/05 09:07:34;;;;;;;40.53;23.17;;;;;;;-0.06;100.00;100523.28;1456460;89;22477;-79
2023/12/05 09:10:00;;;;;;;44.67;26.43;;;;;;;-0.02;100.00;100519.59;1456093;89;21631;-79
2023/12/05 09:12:27;;;;;;;45.80;28.33;;;;;;;0.03;100.00;100517.20;1452791;89;21603;-79
2023/12/05 09:14:53;;;;;;;44.07;26.00;;;;;;;0.06;100.00;100515.74;1457777;89;21754;-79
2023/12/05 09:17:19;;;;;;;46.37;28.27;;;;;;;0.10;100.00;100518.59;1456381;89;23064;-80
2023/12/05 09:19:45;;;;;;;46.57;28.30;;;;;;;0.09;100.00;100514.31;1462585;89;21722;-79
2023/12/05 09:22:12;;;;;;;47.20;26.17;;;;;;;0.09;100.00;100516.92;1455176;89;21722;-80
2023/12/05 09:24:38;;;;;;;54.10;28.03;;;;;;;0.08;100.00;100508.70;1460766;89;22624;-80
2023/12/05 09:27:05;;;;;;;50.77;26.97;;;;;;;0.10;100.00;100513.38;1458776;89;21674;-80
2023/12/05 09:29:31;;;;;;;48.20;28.37;;;;;;;0.09;100.00;100511.72;1456286;89;21449;-80
2023/12/05 09:31:58;;;;;;;50.40;28.37;;;;;;;0.09;100.00;100506.05;1460438;89;21627;-80
2023/12/05 09:34:24;;;;;;;39.10;24.90;;;;;;;0.09;100.00;100506.51;1457110;89;21672;-79
2023/12/05 09:36:50;;;;;;;49.00;26.17;;;;;;;0.09;100.00;100510.41;1456895;89;21613;-79
2023/12/05 09:39:16;;;;;;;46.80;25.07;;;;;;;0.09;100.00;100495.63;1458591;89;21782;-79
2023/12/05 09:41:51;;;;;;;46.50;24.10;;;;;;;0.14;100.00;100499.28;1459268;89;22658;-79
2023/12/05 09:44:23;;;;;;;38.17;23.20;;;;;;;0.19;100.00;100494.69;1459473;89;21676;-79
2023/12/05 09:46:53;;;;;;;40.50;22.60;;;;;;;0.18;100.00;100493.02;1500339;88;21863;-79
2023/12/05 09:49:24;;;;;;;37.20;23.05;;;;;;;0.16;100.00;100484.44;1455282;89;21879;-78
2023/12/05 09:51:51;;;;;;;;;;;;;;;0.13;100.00;100487.20;1383114;90;22227;-79
2023/12/05 09:54:17;;;;;;;35.50;22.37;;;;;;;0.06;100.00;100485.38;1384326;89;20373;-79
2023/12/05 09:56:45;;;;;;;35.10;20.97;;;;;;;-0.01;100.00;100480.93;1413218;89;21640;-79
2023/12/05 09:59:12;;;;;;;41.10;23.77;;;;;;;-0.06;100.00;100482.95;1452116;89;22688;-79
2023/12/05 10:01:42;;;;;;;30.37;19.80;;;;;;;-0.16;100.00;100476.52;1456086;89;22249;-79
2023/12/05 10:04:11;;;;;;;33.37;19.93;;;;;;;-0.15;100.00;100467.79;1380850;89;21492;-78
2023/12/05 10:06:38;;;;;;;34.43;21.53;;;;;;;-0.16;100.00;100466.12;1380701;89;21484;-79
2023/12/05 10:09:06;;;;;;;38.17;22.27;;;;;;;-0.18;100.00;100466.64;1383926;89;22385;-79
2023/12/05 10:11:33;;;;;;;35.73;21.70;;;;;;;-0.17;100.00;100463.14;1370852;90;21567;-80
2023/12/05 10:14:02;;;;;;;38.20;22.17;;;;;;;-0.20;100.00;100459.41;1387060;89;21495;-78
2023/12/05 10:16:30;;;;;;;42.77;25.00;;;;;;;-0.21;100.00;100460.30;1458204;89;22707;-79
2023/12/05 10:18:57;;;;;;;46.10;26.13;;;;;;;-0.21;100.00;100464.20;1464555;89;21516;-79
2023/12/05 10:21:23;;;;;;;45.97;26.40;;;;;;;-0.17;100.00;100460.55;1454245;89;21712;-79
2023/12/05 10:23:50;;;;;;;46.80;26.97;;;;;;;-0.10;100.00;100451.95;1453203;89;21640;-80
2023/12/05 10:26:16;;;;;;;52.57;29.03;;;;;;;-0.03;100.00;100451.57;1441897;89;22469;-79
2023/12/05 10:28:51;;;;;;;41.37;26.53;;;;;;;0.02;100.00;100447.41;1456906;89;22598;-80
2023/12/05 10:31:20;;;;;;;42.50;24.90;;;;;;;0.06;100.00;100441.58;1499497;89;21685;-79
2023/12/05 10:33:51;;;;;;;48.03;27.00;;;;;;;0.09;100.00;100431.88;1393833;89;22499;-79
2023/12/05 10:36:17;;;;;;;42.95;26.27;;;;;;;0.12;100.00;100433.48;1457984;89;22661;-80
2023/12/05 10:38:45;;;;;;;53.50;25.63;;;;;;;0.13;100.00;100433.37;1462894;89;21456;-79
2023/12/05 10:41:14;;;;;;;41.80;23.40;;;;;;;0.19;100.00;100434.81;1443138;89;21670;-79
2023/12/05 10:43:46;;;;;;;37.43;23.37;;;;;;;0.26;100.00;100438.80;1456872;89;21810;-79
2023/12/05 10:46:12;;;;;;;42.80;24.27;;;;;;;0.32;100.00;100433.25;1459800;89;21669;-79
2023/12/05 10:48:38;;;;;;;40.27;23.70;;;;;;;0.38;100.00;100432.92;1456595;89;22819;-79
2023/12/05 10:51:05;;;;;;;42.77;24.67;;;;;;;0.45;100.00;100426.45;1458622;89;21726;-79
2023/12/05 10:53:34;;;;;;;42.50;26.30;;;;;;;0.52;100.00;100433.92;1449336;89;21812;-79
2023/12/05 10:56:13;;;;;;;42.00;26.90;;;;;;;0.54;100.00;100430.31;1455689;89;21758;-79
2023/12/05 10:58:43;;;;;;;41.33;25.27;;;;;;;0.56;100.00;100424.56;1483359;89;21735;-79
2023/12/05 11:01:14;;;;;;;36.33;23.50;;;;;;;0.58;100.00;100441.42;1447527;89;22928;-80